Terminal Aerodrome Forecast
Issued by NWS

Current Version | Previous Version | Text Only | Print | Product List | Glossary On
Versions: 1 2 3 4 5 6 7 8 9 10 11 12 13 14 15 16 17 18 19
937
FTUS46 KMFR 192345
TAFOTH
TAF
KOTH 192345Z 2000/2024 16009KT P6SM BKN060 OVC120
     FM200100 21012G20KT P6SM OVC060
     FM200300 19016G24KT P6SM -RA SCT020 SCT030 OVC050 WS015/21045KT
     FM200500 20019G27KT P6SM -RA SCT020 OVC030 WS015/23050KT
     FM201200 21015G22KT 5SM RA BR BKN010 OVC020
     FM201800 20007KT 5SM -RA BKN015 OVC025=

USA.gov is the U.S. government's official web portal to all federal, state and local government web resources and services.